Time;durP1;ratioP1;P1;durP2;ratioP2;P2;SDS_P1;SDS_P2;PMS_P1;PMS_P2;Temp;Humidity;BMP_temperature;BMP_pressure;BME280_temperature;BME280_humidity;BME280_pressure;Samples;Min_cycle;Max_cycle;Signal;HPM_P1;HPM_P2
2022/01/28 00:01:50;;;;;;;6.00;5.40;;;4.40;99.90;;;;;;4964444;29;20500;-81
2022/01/28 00:04:35;;;;;;;4.23;3.70;;;4.40;99.90;;;;;;4964012;29;20380;-81
2022/01/28 00:07:19;;;;;;;5.93;5.10;;;4.50;99.90;;;;;;4964250;29;20385;-81
2022/01/28 00:10:05;;;;;;;6.03;3.90;;;4.40;99.90;;;;;;4962625;29;20723;-81
2022/01/28 00:13:18;;;;;;;4.87;3.80;;;4.40;99.90;;;;;;4961497;29;20380;-81
2022/01/28 00:19:22;;;;;;;4.33;3.77;;;4.40;99.90;;;;;;4952652;29;20389;-81
2022/01/28 00:37:37;;;;;;;3.47;2.90;;;4.60;99.90;;;;;;5000299;28;20474;-81
2022/01/28 00:40:22;;;;;;;3.77;3.00;;;4.60;99.90;;;;;;4999527;28;20392;-81
2022/01/28 00:43:08;;;;;;;3.90;2.63;;;4.60;99.90;;;;;;5000132;28;20387;-81
2022/01/28 00:45:52;;;;;;;3.50;3.17;;;4.60;99.90;;;;;;5000687;28;20391;-81
2022/01/28 00:48:37;;;;;;;3.13;2.50;;;4.70;99.90;;;;;;5000072;28;20415;-81
2022/01/28 00:51:22;;;;;;;2.93;2.43;;;4.70;99.90;;;;;;5001661;28;20371;-81
2022/01/28 00:54:07;;;;;;;6.67;3.13;;;4.70;99.90;;;;;;5004055;28;20470;-80
2022/01/28 00:56:51;;;;;;;7.30;2.60;;;4.80;99.90;;;;;;5003622;28;20372;-80
2022/01/28 00:59:36;;;;;;;3.60;3.00;;;4.80;99.90;;;;;;5017348;28;20378;-81
2022/01/28 01:02:21;;;;;;;4.13;3.30;;;4.80;99.90;;;;;;5025898;28;20958;-81
2022/01/28 01:05:06;;;;;;;5.20;2.20;;;4.80;99.90;;;;;;5025877;28;20892;-80
2022/01/28 01:07:50;;;;;;;2.63;2.43;;;4.80;99.90;;;;;;5030942;28;20405;-80
2022/01/28 01:10:36;;;;;;;4.93;2.47;;;4.90;99.90;;;;;;5029673;28;20362;-81
2022/01/28 01:13:21;;;;;;;3.37;3.00;;;4.80;99.90;;;;;;5025879;28;20558;-81
2022/01/28 01:16:07;;;;;;;6.20;2.23;;;4.80;99.90;;;;;;5025212;28;20416;-81
2022/01/28 01:19:04;;;;;;;4.87;2.30;;;4.70;99.90;;;;;;5025249;28;20366;-80
2022/01/28 01:21:54;;;;;;;2.43;2.23;;;4.70;99.90;;;;;;5018059;28;20398;-81
2022/01/28 01:24:48;;;;;;;1.93;1.83;;;4.70;99.90;;;;;;5025701;28;20370;-81
2022/01/28 01:27:33;;;;;;;2.60;2.37;;;4.70;99.90;;;;;;5024604;28;20391;-81
2022/01/28 01:30:18;;;;;;;3.53;2.13;;;4.70;99.90;;;;;;5024933;28;20366;-82
2022/01/28 01:33:02;;;;;;;7.20;2.67;;;4.70;99.90;;;;;;5024600;28;20415;-81
2022/01/28 01:35:47;;;;;;;3.17;2.97;;;4.70;99.90;;;;;;5025170;28;20418;-81
2022/01/28 01:38:36;;;;;;;3.53;2.90;;;4.80;99.90;;;;;;5024582;28;20749;-81
2022/01/28 01:41:34;;;;;;;2.77;2.50;;;4.80;99.90;;;;;;5009347;28;20363;-82
2022/01/28 01:44:36;;;;;;;2.83;2.60;;;4.80;99.90;;;;;;5024892;28;20394;-82
2022/01/28 01:52:02;;;;;;;3.50;2.37;;;4.80;99.90;;;;;;5025104;28;20385;-82
2022/01/28 01:53:24;;;;;;;4.90;3.03;;;4.80;99.90;;;;;;5024847;28;20512;-81
2022/01/28 01:56:09;;;;;;;3.07;2.83;;;4.70;99.90;;;;;;5024608;28;20435;-81
2022/01/28 01:58:55;;;;;;;5.00;2.87;;;4.70;99.90;;;;;;5024602;28;20382;-81
2022/01/28 02:01:40;;;;;;;5.07;3.10;;;4.80;99.90;;;;;;5024297;28;20579;-81
2022/01/28 02:04:25;;;;;;;2.83;2.40;;;4.50;99.90;;;;;;5024693;28;20428;-81
2022/01/28 02:07:14;;;;;;;4.20;3.80;;;4.60;99.90;;;;;;5024707;28;20392;-80
2022/01/28 02:09:59;;;;;;;4.13;3.13;;;4.50;99.90;;;;;;5024593;28;20392;-81
2022/01/28 02:12:50;;;;;;;2.53;2.33;;;4.50;99.90;;;;;;5023906;28;20477;-81
2022/01/28 02:15:34;;;;;;;3.67;3.37;;;4.50;99.90;;;;;;5024342;28;20389;-81
2022/01/28 02:18:20;;;;;;;3.47;3.17;;;4.50;99.90;;;;;;5008768;28;20380;-81
2022/01/28 02:21:07;;;;;;;2.97;2.30;;;4.50;99.90;;;;;;5024113;28;20351;-81
2022/01/28 02:23:59;;;;;;;4.00;2.97;;;4.50;99.90;;;;;;5023775;28;20436;-81
2022/01/28 02:26:44;;;;;;;2.57;2.37;;;4.40;99.90;;;;;;5023309;28;20892;-81
2022/01/28 02:29:31;;;;;;;3.50;3.20;;;4.40;99.90;;;;;;5024635;28;20896;-81
2022/01/28 02:32:15;;;;;;;3.83;3.10;;;4.40;99.90;;;;;;5010468;28;20358;-82
2022/01/28 02:35:00;;;;;;;4.00;3.70;;;4.50;99.90;;;;;;5026070;28;20488;-81
2022/01/28 02:37:44;;;;;;;5.95;4.20;;;4.60;99.90;;;;;;5024951;28;20464;-81
2022/01/28 02:40:29;;;;;;;4.40;4.00;;;4.60;99.90;;;;;;5026799;28;20164;-81
2022/01/28 02:43:28;;;;;;;5.10;3.17;;;4.60;99.90;;;;;;5024369;28;20374;-81
2022/01/28 02:46:16;;;;;;;4.67;3.17;;;4.60;99.90;;;;;;5024307;28;20366;-81
2022/01/28 02:49:05;;;;;;;4.63;3.70;;;4.60;99.90;;;;;;5024868;28;20902;-81
2022/01/28 02:51:50;;;;;;;4.10;2.73;;;4.60;99.90;;;;;;5025949;28;20708;-81
2022/01/28 02:54:44;;;;;;;4.20;3.50;;;4.60;99.90;;;;;;5024554;28;20434;-81
2022/01/28 02:57:29;;;;;;;5.87;2.80;;;4.60;99.90;;;;;;5023942;28;20410;-81
2022/01/28 03:00:14;;;;;;;3.10;2.90;;;4.50;99.90;;;;;;5023843;28;20377;-82
2022/01/28 03:02:58;;;;;;;2.13;2.03;;;4.50;99.90;;;;;;5023403;28;20370;-81
2022/01/28 03:05:43;;;;;;;2.83;2.47;;;4.50;99.90;;;;;;5023537;28;20370;-82
2022/01/28 03:08:29;;;;;;;2.77;2.47;;;4.40;99.90;;;;;;5008364;28;20406;-81
2022/01/28 03:11:41;;;;;;;2.37;2.20;;;4.40;99.90;;;;;;5023830;28;20366;-82
2022/01/28 03:14:32;;;;;;;2.43;2.20;;;4.40;99.90;;;;;;5011358;28;20410;-81
2022/01/28 03:17:49;;;;;;;2.37;2.17;;;4.40;99.90;;;;;;5022700;28;20391;-81
2022/01/28 03:20:36;;;;;;;3.53;2.67;;;4.30;99.90;;;;;;5022730;28;20437;-81
2022/01/28 03:23:21;;;;;;;6.43;2.77;;;4.40;99.90;;;;;;5023321;28;20447;-82
2022/01/28 03:26:07;;;;;;;2.47;2.27;;;4.40;99.90;;;;;;5023592;28;20443;-82
2022/01/28 03:28:52;;;;;;;2.53;2.13;;;4.40;99.90;;;;;;5023547;28;20394;-81
2022/01/28 03:31:38;;;;;;;2.60;1.93;;;4.40;99.90;;;;;;5008350;28;20858;-81
2022/01/28 03:34:22;;;;;;;6.17;3.20;;;4.40;99.90;;;;;;4975957;28;21011;-82
2022/01/28 03:37:08;;;;;;;5.50;2.57;;;4.50;99.90;;;;;;5023997;28;20401;-81
2022/01/28 03:39:53;;;;;;;1.57;1.47;;;4.50;99.90;;;;;;5018168;28;20371;-81
2022/01/28 03:42:38;;;;;;;6.80;2.23;;;4.50;99.90;;;;;;5022926;28;20431;-82
2022/01/28 03:45:22;;;;;;;2.63;2.43;;;4.50;99.90;;;;;;5025862;28;20423;-81
2022/01/28 03:48:07;;;;;;;2.47;2.28;;;4.50;99.90;;;;;;5025308;28;20319;-81
2022/01/28 03:50:51;;;;;;;4.40;2.77;;;4.60;99.90;;;;;;5026537;28;20161;-82
2022/01/28 03:53:36;;;;;;;1.93;1.63;;;4.50;99.90;;;;;;5026218;28;20442;-82
2022/01/28 03:56:21;;;;;;;1.50;1.37;;;4.60;99.90;;;;;;5009414;28;20747;-81
2022/01/28 03:59:06;;;;;;;2.07;1.70;;;4.50;99.90;;;;;;5014528;28;20386;-82
2022/01/28 04:01:51;;;;;;;7.43;2.47;;;4.50;99.90;;;;;;5013080;28;20465;-81
2022/01/28 04:05:35;;;;;;;2.07;1.87;;;4.50;99.90;;;;;;5025318;28;20773;-81
2022/01/28 04:13:49;;;;;;;2.67;1.70;;;4.60;99.90;;;;;;5003805;28;20475;-81
2022/01/28 04:17:20;;;;;;;2.20;2.00;;;4.60;99.90;;;;;;4993032;28;20392;-81
2022/01/28 04:19:40;;;;;;;5.50;3.07;;;4.60;99.90;;;;;;4993362;28;20411;-81
2022/01/28 04:22:25;;;;;;;2.10;1.90;;;4.60;99.90;;;;;;5002666;28;20597;-81
2022/01/28 04:25:09;;;;;;;2.30;1.93;;;4.60;99.90;;;;;;5002211;28;20367;-81
2022/01/28 04:27:54;;;;;;;2.50;2.30;;;4.60;99.90;;;;;;5001091;28;20503;-82
2022/01/28 04:30:38;;;;;;;3.60;2.43;;;4.60;99.90;;;;;;5002081;28;20729;-82
2022/01/28 04:33:23;;;;;;;2.20;2.03;;;4.60;99.90;;;;;;5002163;28;20544;-82
2022/01/28 04:36:12;;;;;;;2.40;2.03;;;4.60;99.90;;;;;;5007944;28;20702;-81
2022/01/28 04:39:14;;;;;;;4.40;2.30;;;4.60;99.90;;;;;;5004966;28;20417;-78
2022/01/28 04:42:12;;;;;;;2.17;2.00;;;4.60;99.90;;;;;;5013374;28;20500;-78
2022/01/28 04:45:15;;;;;;;3.80;2.60;;;4.60;99.90;;;;;;5023299;28;20480;-78
2022/01/28 04:48:12;;;;;;;2.97;2.67;;;4.50;99.90;;;;;;4989563;28;20415;-81
2022/01/28 04:54:03;;;;;;;4.97;2.93;;;4.40;99.90;;;;;;4989710;28;20430;-81
2022/01/28 04:57:00;;;;;;;2.50;2.07;;;4.50;99.90;;;;;;5002410;28;20935;-81
2022/01/28 05:00:05;;;;;;;2.37;2.00;;;4.40;99.90;;;;;;5001547;28;20424;-81
2022/01/28 05:03:21;;;;;;;2.63;2.40;;;4.40;99.90;;;;;;5002039;28;20412;-81
2022/01/28 05:15:20;;;;;;;1.87;1.77;;;4.30;99.90;;;;;;5001704;28;20472;-81
2022/01/28 05:24:26;;;;;;;2.67;2.43;;;4.30;99.90;;;;;;5001989;28;20398;-80
2022/01/28 05:27:10;;;;;;;3.37;3.07;;;4.30;99.90;;;;;;5001926;28;20408;-81
2022/01/28 05:29:55;;;;;;;3.13;2.50;;;4.40;99.90;;;;;;5001986;28;20408;-82
2022/01/28 05:32:39;;;;;;;13.93;2.60;;;4.30;99.90;;;;;;5001468;28;20380;-81
2022/01/28 05:35:26;;;;;;;3.40;2.30;;;4.40;99.90;;;;;;5001892;28;20395;-81
2022/01/28 05:38:10;;;;;;;2.90;2.23;;;4.30;99.90;;;;;;5004586;28;20428;-81
2022/01/28 05:40:56;;;;;;;3.70;2.50;;;4.40;99.90;;;;;;5005805;28;20367;-81
2022/01/28 05:43:41;;;;;;;3.60;3.20;;;4.40;99.90;;;;;;5006200;28;20680;-81
2022/01/28 05:46:28;;;;;;;2.60;2.23;;;4.30;99.90;;;;;;4990018;28;20375;-81
2022/01/28 05:49:13;;;;;;;3.53;2.80;;;4.40;99.90;;;;;;5005031;28;20392;-81
2022/01/28 05:51:58;;;;;;;1.60;1.50;;;4.40;99.90;;;;;;5005226;28;20747;-81
2022/01/28 05:54:43;;;;;;;1.77;1.67;;;4.40;99.90;;;;;;5004882;28;20435;-81
2022/01/28 05:57:28;;;;;;;2.57;2.37;;;4.40;99.90;;;;;;5007036;28;20367;-81
2022/01/28 06:00:14;;;;;;;3.47;2.87;;;4.40;99.90;;;;;;5006502;28;20874;-81
2022/01/28 06:02:58;;;;;;;5.63;3.07;;;4.40;99.90;;;;;;5025765;28;20472;-81
2022/01/28 06:05:45;;;;;;;7.57;3.03;;;4.40;99.90;;;;;;5009881;28;20387;-81
2022/01/28 06:08:29;;;;;;;2.30;2.10;;;4.40;99.90;;;;;;5026194;28;20403;-81
2022/01/28 06:11:14;;;;;;;5.03;3.03;;;4.20;99.90;;;;;;5010218;28;20506;-80
2022/01/28 06:13:59;;;;;;;2.97;1.97;;;4.30;99.90;;;;;;5024974;28;20414;-81
2022/01/28 06:16:44;;;;;;;10.70;2.77;;;4.30;99.90;;;;;;5025177;28;20468;-80
2022/01/28 06:19:29;;;;;;;16.57;2.93;;;4.30;99.90;;;;;;5025944;28;20407;-79
2022/01/28 06:22:13;;;;;;;4.37;2.90;;;4.30;99.90;;;;;;5010739;28;20403;-82
2022/01/28 06:24:58;;;;;;;5.10;2.50;;;4.30;99.90;;;;;;5026913;28;20401;-83
2022/01/28 06:27:43;;;;;;;2.70;2.03;;;4.20;99.90;;;;;;5027979;28;20362;-82
2022/01/28 06:30:28;;;;;;;5.40;2.63;;;4.20;99.90;;;;;;5033903;28;20403;-82
2022/01/28 06:33:13;;;;;;;2.30;1.80;;;4.20;99.90;;;;;;5027538;28;20435;-82
2022/01/28 06:35:58;;;;;;;2.30;2.10;;;4.20;99.90;;;;;;5011964;28;20378;-82
2022/01/28 06:38:43;;;;;;;2.10;1.87;;;4.10;99.90;;;;;;5026383;28;20415;-82
2022/01/28 06:41:30;;;;;;;3.30;2.10;;;4.20;99.90;;;;;;4996257;28;20900;-82
2022/01/28 06:44:15;;;;;;;2.60;2.40;;;4.20;99.90;;;;;;5025774;28;20474;-82
2022/01/28 06:47:00;;;;;;;6.47;1.60;;;4.10;99.90;;;;;;5025642;28;20417;-81
2022/01/28 06:49:44;;;;;;;9.37;2.03;;;4.10;99.90;;;;;;5011971;28;20378;-81
2022/01/28 06:52:29;;;;;;;3.00;2.13;;;4.10;99.90;;;;;;5024788;28;20411;-82
2022/01/28 06:55:16;;;;;;;2.10;1.63;;;4.10;99.90;;;;;;5007397;28;20421;-82
2022/01/28 06:58:01;;;;;;;2.53;2.10;;;4.00;99.90;;;;;;5009291;28;20403;-82
2022/01/28 07:00:46;;;;;;;6.23;2.13;;;4.00;99.90;;;;;;5027252;28;20472;-81
2022/01/28 07:03:30;;;;;;;2.57;1.80;;;4.00;99.90;;;;;;5022352;28;20403;-81
2022/01/28 07:06:15;;;;;;;2.40;1.67;;;4.00;99.90;;;;;;5031082;28;20404;-81
2022/01/28 07:09:00;;;;;;;7.70;1.90;;;4.00;99.90;;;;;;4999664;28;20418;-81
2022/01/28 07:11:44;;;;;;;5.57;2.77;;;4.10;99.90;;;;;;5018462;28;20389;-81
2022/01/28 07:14:29;;;;;;;1.43;1.33;;;4.10;99.90;;;;;;5021009;28;20433;-82
2022/01/28 07:17:14;;;;;;;2.13;1.93;;;4.10;99.90;;;;;;5030826;28;20449;-81
2022/01/28 07:19:58;;;;;;;7.57;2.07;;;4.10;99.90;;;;;;5028175;28;20810;-81
2022/01/28 07:22:43;;;;;;;5.33;1.77;;;4.10;99.90;;;;;;5008055;28;20467;-81
2022/01/28 07:25:28;;;;;;;1.30;1.20;;;4.20;99.90;;;;;;5023365;28;20397;-81
2022/01/28 07:28:13;;;;;;;6.37;1.90;;;4.20;99.90;;;;;;5021655;28;20389;-82
2022/01/28 07:30:57;;;;;;;1.93;1.67;;;4.20;99.90;;;;;;5021771;28;20398;-82
2022/01/28 07:33:42;;;;;;;1.67;1.50;;;4.10;99.90;;;;;;5036108;28;20915;-82
2022/01/28 07:36:28;;;;;;;2.10;1.53;;;4.20;99.90;;;;;;5023100;28;20434;-81
2022/01/28 07:39:12;;;;;;;2.17;2.07;;;4.20;99.90;;;;;;5020159;28;20411;-79
2022/01/28 07:41:57;;;;;;;3.60;2.73;;;4.30;99.90;;;;;;4990139;28;20415;-80
2022/01/28 07:44:41;;;;;;;3.97;2.07;;;4.30;99.90;;;;;;5032507;28;20435;-80
2022/01/28 07:47:26;;;;;;;4.03;1.90;;;4.40;99.90;;;;;;5004193;28;20398;-81
2022/01/28 07:50:13;;;;;;;7.43;4.50;;;4.40;99.90;;;;;;5020346;28;20774;-80
2022/01/28 07:52:59;;;;;;;3.70;2.23;;;4.40;99.90;;;;;;5020333;28;20473;-81
2022/01/28 07:55:45;;;;;;;1.83;1.73;;;4.30;99.90;;;;;;5005846;28;20390;-81
2022/01/28 07:58:30;;;;;;;4.80;1.70;;;4.40;99.90;;;;;;5028552;28;20381;-81
2022/01/28 08:01:15;;;;;;;3.47;1.87;;;4.40;99.90;;;;;;5025768;28;20479;-81
2022/01/28 08:04:01;;;;;;;10.60;3.47;;;4.40;99.90;;;;;;5014760;28;20438;-81
2022/01/28 08:06:46;;;;;;;2.83;2.30;;;4.50;99.90;;;;;;5025288;28;20433;-80
2022/01/28 08:09:33;;;;;;;4.40;2.53;;;4.60;99.90;;;;;;5006783;28;20440;-79
2022/01/28 08:12:17;;;;;;;2.73;2.00;;;4.60;99.90;;;;;;4986685;28;20418;-80
2022/01/28 08:15:02;;;;;;;1.53;1.23;;;4.70;99.90;;;;;;5018662;28;20457;-80
2022/01/28 08:17:46;;;;;;;3.53;1.40;;;5.00;99.90;;;;;;5002375;28;20397;-82
2022/01/28 08:20:31;;;;;;;8.03;1.53;;;5.40;99.90;;;;;;5018497;28;20912;-81
2022/01/28 08:23:16;;;;;;;1.90;1.70;;;5.40;99.90;;;;;;4996689;28;20448;-80
2022/01/28 08:26:00;;;;;;;3.87;3.17;;;5.40;99.90;;;;;;5020607;28;20420;-80
2022/01/28 08:28:47;;;;;;;3.63;1.93;;;5.30;99.90;;;;;;5018439;28;20382;-80
2022/01/28 08:31:32;;;;;;;3.57;2.30;;;5.30;99.90;;;;;;5019993;28;20403;-82
2022/01/28 08:34:17;;;;;;;7.43;1.83;;;5.20;99.90;;;;;;5002178;28;20979;-82
2022/01/28 08:37:04;;;;;;;4.70;2.47;;;5.20;99.90;;;;;;5010666;28;20423;-81
2022/01/28 08:39:49;;;;;;;4.73;2.03;;;5.10;99.90;;;;;;5008526;28;20420;-82
2022/01/28 08:42:33;;;;;;;1.97;1.73;;;5.10;99.90;;;;;;5018059;28;20406;-81
2022/01/28 08:45:18;;;;;;;8.47;2.53;;;5.10;99.90;;;;;;5018025;28;20419;-81
2022/01/28 08:48:03;;;;;;;2.00;1.80;;;5.00;99.90;;;;;;5018486;28;20397;-81
2022/01/28 08:50:48;;;;;;;2.00;1.80;;;5.00;99.90;;;;;;5028080;28;20422;-80
2022/01/28 08:53:33;;;;;;;2.57;1.87;;;5.00;99.90;;;;;;5028513;28;20538;-79
2022/01/28 08:56:18;;;;;;;3.23;1.63;;;5.00;99.90;;;;;;5027801;28;20407;-79
2022/01/28 08:59:02;;;;;;;2.00;1.50;;;4.90;99.90;;;;;;5009927;28;20411;-81
2022/01/28 09:01:47;;;;;;;4.90;1.83;;;4.90;99.90;;;;;;5012817;28;20580;-82
2022/01/28 09:04:32;;;;;;;2.03;1.63;;;4.90;99.90;;;;;;5015802;28;20393;-83
2022/01/28 09:07:19;;;;;;;3.07;2.80;;;4.80;99.90;;;;;;5017953;28;20892;-81
2022/01/28 09:10:11;;;;;;;1.47;1.37;;;4.90;99.90;;;;;;5023590;28;20373;-81
2022/01/28 09:13:22;;;;;;;1.90;1.77;;;5.00;99.90;;;;;;5020780;28;20447;-80
2022/01/28 09:16:02;;;;;;;7.50;2.93;;;5.00;99.90;;;;;;5032501;28;20414;-81
2022/01/28 09:18:47;;;;;;;4.10;1.70;;;4.90;99.90;;;;;;5004897;28;20446;-82
2022/01/28 09:21:31;;;;;;;2.33;1.90;;;5.00;99.90;;;;;;4993598;28;20502;-80
2022/01/28 09:24:17;;;;;;;1.80;1.70;;;5.00;99.90;;;;;;5018570;28;20411;-80
2022/01/28 09:27:02;;;;;;;4.40;1.63;;;5.00;99.90;;;;;;4997380;28;20445;-79
2022/01/28 09:29:46;;;;;;;5.67;2.43;;;5.10;99.90;;;;;;5016657;28;20841;-79
2022/01/28 09:32:31;;;;;;;5.60;1.67;;;5.10;99.90;;;;;;5004158;28;20418;-81
2022/01/28 09:35:17;;;;;;;9.97;2.00;;;5.30;99.90;;;;;;5019604;28;20444;-80
2022/01/28 09:38:02;;;;;;;4.00;1.47;;;5.40;99.90;;;;;;5027095;28;20449;-81
2022/01/28 09:40:49;;;;;;;5.93;2.20;;;5.30;99.90;;;;;;5015437;28;20536;-82
2022/01/28 09:43:34;;;;;;;4.53;2.20;;;5.40;99.90;;;;;;5021605;28;20501;-81
2022/01/28 09:46:22;;;;;;;4.63;2.13;;;5.50;99.90;;;;;;5013732;28;20471;-80
2022/01/28 09:49:07;;;;;;;3.40;2.43;;;5.40;99.90;;;;;;5022355;28;20466;-81
2022/01/28 09:51:51;;;;;;;3.30;1.60;;;5.50;99.90;;;;;;5008530;28;20447;-81
2022/01/28 09:54:38;;;;;;;2.50;1.67;;;5.50;99.90;;;;;;5016494;28;20464;-79
2022/01/28 09:57:23;;;;;;;3.57;1.53;;;5.50;99.90;;;;;;5006352;28;20429;-82
2022/01/28 10:00:09;;;;;;;5.70;2.47;;;5.50;99.90;;;;;;5022126;28;20451;-82
2022/01/28 10:02:59;;;;;;;6.13;1.90;;;5.50;99.90;;;;;;5001170;28;20395;-82
2022/01/28 10:05:50;;;;;;;5.23;1.50;;;5.40;99.90;;;;;;4989729;28;20444;-82
2022/01/28 10:08:36;;;;;;;8.33;1.80;;;5.50;99.90;;;;;;5001374;28;21177;-82
2022/01/28 10:11:20;;;;;;;10.13;2.10;;;5.50;99.90;;;;;;5001167;28;20415;-81
2022/01/28 10:14:13;;;;;;;2.13;1.57;;;5.50;99.90;;;;;;4979945;28;20466;-81
2022/01/28 10:16:59;;;;;;;3.60;1.70;;;5.50;99.90;;;;;;4997157;28;20435;-81
2022/01/28 10:19:45;;;;;;;7.63;2.30;;;5.60;99.90;;;;;;4969363;28;20412;-80
2022/01/28 10:22:32;;;;;;;2.40;1.67;;;5.70;99.90;;;;;;4980783;28;20420;-82
2022/01/28 10:25:28;;;;;;;5.50;1.83;;;5.70;99.90;;;;;;4990607;28;20913;-82
2022/01/28 10:28:12;;;;;;;2.70;2.10;;;5.70;99.90;;;;;;4993589;28;20523;-81
2022/01/28 10:30:57;;;;;;;6.07;2.20;;;5.70;99.90;;;;;;4991205;28;20538;-81
2022/01/28 10:33:41;;;;;;;4.30;2.53;;;5.60;99.90;;;;;;4984641;28;20502;-81
2022/01/28 10:36:26;;;;;;;3.97;2.37;;;5.60;99.90;;;;;;4999272;28;20528;-79
2022/01/28 10:39:19;;;;;;;2.30;1.70;;;5.50;99.90;;;;;;4993989;28;21010;-80
2022/01/28 10:42:04;;;;;;;9.03;2.03;;;5.50;99.90;;;;;;4972293;28;20509;-80
2022/01/28 10:44:54;;;;;;;3.70;2.57;;;5.40;99.90;;;;;;4989404;28;20402;-80
2022/01/28 10:47:42;;;;;;;7.30;2.90;;;5.50;99.90;;;;;;4959342;28;20403;-80
2022/01/28 10:50:31;;;;;;;2.67;1.47;;;5.60;99.90;;;;;;4958009;28;20732;-82
2022/01/28 10:53:19;;;;;;;5.53;3.03;;;5.60;99.90;;;;;;4988422;28;20872;-82
2022/01/28 10:56:12;;;;;;;9.20;3.07;;;5.60;99.90;;;;;;4995611;28;21800;-81
2022/01/28 10:58:57;;;;;;;2.70;2.07;;;5.60;99.90;;;;;;5003203;28;20414;-81
2022/01/28 11:01:42;;;;;;;4.63;2.00;;;5.70;99.90;;;;;;5005841;28;20851;-81
2022/01/28 11:04:27;;;;;;;6.37;2.50;;;5.70;99.90;;;;;;5016795;28;20362;-82
2022/01/28 11:07:11;;;;;;;3.57;2.40;;;5.70;99.90;;;;;;5016958;28;20527;-82
2022/01/28 11:09:57;;;;;;;13.90;2.60;;;5.70;99.90;;;;;;4996562;28;20433;-81
2022/01/28 11:12:41;;;;;;;2.17;2.07;;;5.70;99.90;;;;;;5023414;28;20457;-82
2022/01/28 11:15:27;;;;;;;6.50;3.23;;;5.70;99.90;;;;;;5015558;28;20441;-82
2022/01/28 11:18:12;;;;;;;6.47;3.00;;;5.80;99.90;;;;;;5016278;28;20676;-82
2022/01/28 11:21:10;;;;;;;5.23;3.60;;;5.80;99.90;;;;;;5016307;28;20386;-82
2022/01/28 11:24:21;;;;;;;11.30;2.40;;;5.90;99.90;;;;;;5017477;28;20793;-82
2022/01/28 11:27:31;;;;;;;2.93;1.97;;;5.90;99.90;;;;;;5003535;28;20405;-82
2022/01/28 11:30:28;;;;;;;7.00;3.00;;;5.90;99.90;;;;;;5013770;28;20415;-82
2022/01/28 11:33:14;;;;;;;6.30;2.37;;;5.90;99.90;;;;;;5020552;28;20906;-82
2022/01/28 11:36:03;;;;;;;3.27;1.80;;;6.00;99.90;;;;;;5021565;28;20482;-82
2022/01/28 11:38:48;;;;;;;5.20;2.33;;;6.00;99.90;;;;;;5019156;28;20377;-82
2022/01/28 11:41:35;;;;;;;6.00;2.70;;;6.00;99.90;;;;;;5021363;28;20378;-82
2022/01/28 11:44:40;;;;;;;3.03;1.90;;;6.00;99.90;;;;;;5021092;28;20439;-82
2022/01/28 11:47:31;;;;;;;2.87;2.63;;;6.00;99.90;;;;;;5021120;28;20811;-82
2022/01/28 11:50:18;;;;;;;2.33;2.13;;;6.00;99.90;;;;;;5020083;28;20468;-79
2022/01/28 11:53:21;;;;;;;7.20;1.87;;;6.00;99.90;;;;;;4986342;28;20437;-80
2022/01/28 11:56:05;;;;;;;3.73;2.10;;;5.90;99.90;;;;;;4972794;28;20910;-82
2022/01/28 11:59:00;;;;;;;4.63;2.20;;;5.90;99.90;;;;;;5015700;28;20415;-81
2022/01/28 12:02:07;;;;;;;7.33;2.40;;;6.00;99.90;;;;;;5009480;28;20993;-79
2022/01/28 12:04:52;;;;;;;5.73;2.67;;;6.00;99.90;;;;;;4999291;28;20939;-81
2022/01/28 12:07:37;;;;;;;4.80;2.20;;;6.00;99.90;;;;;;5016175;28;20401;-79
2022/01/28 12:10:24;;;;;;;6.70;2.87;;;6.10;99.90;;;;;;5011233;28;20871;-79
2022/01/28 12:13:15;;;;;;;4.53;1.67;;;6.10;99.90;;;;;;4963554;28;20432;-78
2022/01/28 12:16:11;;;;;;;8.37;2.67;;;6.10;99.90;;;;;;4955964;28;20396;-78
2022/01/28 12:18:58;;;;;;;9.53;2.70;;;6.10;99.90;;;;;;4959624;28;20482;-79
2022/01/28 12:22:04;;;;;;;2.83;1.90;;;6.10;99.90;;;;;;4960537;28;20436;-77
2022/01/28 12:24:48;;;;;;;2.53;1.80;;;6.10;99.90;;;;;;4948892;29;20436;-80
2022/01/28 12:27:34;;;;;;;7.40;3.43;;;6.20;99.90;;;;;;4953035;28;20792;-80
2022/01/28 12:30:35;;;;;;;6.70;2.97;;;6.10;99.90;;;;;;4960220;29;20473;-82
2022/01/28 12:33:23;;;;;;;4.03;2.83;;;6.20;99.90;;;;;;4959102;28;20408;-80
2022/01/28 12:36:13;;;;;;;5.33;2.73;;;6.30;99.90;;;;;;4932832;29;20397;-79
2022/01/28 12:39:10;;;;;;;7.67;2.23;;;6.50;99.90;;;;;;4934048;29;20882;-80
2022/01/28 12:42:07;;;;;;;10.83;2.80;;;6.50;99.90;;;;;;4961246;29;20434;-79
2022/01/28 12:44:55;;;;;;;2.83;1.93;;;6.50;99.90;;;;;;5005084;28;20405;-80
2022/01/28 12:47:42;;;;;;;6.60;2.40;;;6.50;99.90;;;;;;5007746;28;20489;-80
2022/01/28 12:50:28;;;;;;;3.70;2.10;;;6.60;99.90;;;;;;5002459;28;20397;-79
2022/01/28 12:53:35;;;;;;;7.27;3.30;;;6.50;99.90;;;;;;5017857;28;20463;-79
2022/01/28 12:56:40;;;;;;;8.20;2.50;;;6.60;99.90;;;;;;5012637;28;20457;-81
2022/01/28 12:59:24;;;;;;;3.63;1.80;;;6.60;99.90;;;;;;5028391;28;20412;-80
2022/01/28 13:02:09;;;;;;;11.57;3.20;;;6.70;99.90;;;;;;5031524;28;20463;-80
2022/01/28 13:11:04;;;;;;;3.37;1.97;;;6.80;99.90;;;;;;5032329;28;20423;-79
2022/01/28 13:13:51;;;;;;;4.40;2.70;;;6.60;99.90;;;;;;5025248;28;20429;-81
2022/01/28 13:16:39;;;;;;;4.50;1.80;;;6.60;99.90;;;;;;5027086;28;20405;-80
2022/01/28 13:19:24;;;;;;;3.03;1.90;;;6.40;99.90;;;;;;5008707;28;20422;-80
2022/01/28 13:22:09;;;;;;;6.43;2.73;;;6.40;99.90;;;;;;5012407;28;20528;-80
2022/01/28 13:24:54;;;;;;;3.13;2.50;;;6.30;99.90;;;;;;5020733;28;20405;-81
2022/01/28 13:27:43;;;;;;;6.90;2.60;;;6.40;99.90;;;;;;5026343;28;20421;-79
2022/01/28 13:30:33;;;;;;;6.13;3.17;;;6.40;99.90;;;;;;5006070;28;20414;-78
2022/01/28 13:33:28;;;;;;;6.90;2.30;;;6.40;99.90;;;;;;5015738;28;20417;-78
2022/01/28 13:36:13;;;;;;;7.47;3.00;;;6.40;99.90;;;;;;5029044;28;20393;-79
2022/01/28 13:39:14;;;;;;;3.43;2.73;;;6.40;99.90;;;;;;5015321;28;20732;-80
2022/01/28 13:42:09;;;;;;;1.83;1.67;;;6.40;99.90;;;;;;5013756;28;20436;-79
2022/01/28 13:44:54;;;;;;;4.03;1.97;;;6.40;99.90;;;;;;5018029;28;20398;-80
2022/01/28 13:47:51;;;;;;;5.97;2.03;;;6.30;99.90;;;;;;4994684;28;20359;-79
2022/01/28 13:50:42;;;;;;;3.30;2.00;;;6.30;99.90;;;;;;4991356;28;20430;-79
2022/01/28 13:54:10;;;;;;;3.67;1.87;;;6.30;99.90;;;;;;5038034;28;20429;-80
2022/01/28 13:56:35;;;;;;;1.87;1.77;;;6.40;99.90;;;;;;5028492;28;20438;-79
2022/01/28 13:59:24;;;;;;;6.90;1.93;;;6.50;99.90;;;;;;5010588;28;20750;-79
2022/01/28 14:02:14;;;;;;;5.73;2.30;;;6.60;99.90;;;;;;4991516;28;20474;-79
2022/01/28 14:05:01;;;;;;;13.33;2.83;;;6.60;99.90;;;;;;5001976;28;20448;-80
2022/01/28 14:07:54;;;;;;;3.97;2.10;;;6.60;99.90;;;;;;5023323;28;20438;-79
2022/01/28 14:10:38;;;;;;;2.27;2.07;;;6.60;99.90;;;;;;4961109;28;20424;-79
2022/01/28 14:13:23;;;;;;;11.23;2.70;;;6.50;99.90;;;;;;4991716;28;20787;-80
2022/01/28 14:16:14;;;;;;;6.87;3.20;;;6.60;99.90;;;;;;4983686;28;20436;-80
2022/01/28 14:18:59;;;;;;;3.23;1.70;;;6.80;99.90;;;;;;4984933;28;20460;-78
2022/01/28 14:21:44;;;;;;;6.87;2.67;;;6.90;99.90;;;;;;4965863;28;20443;-79
2022/01/28 14:24:31;;;;;;;13.40;3.23;;;6.80;99.90;;;;;;4966552;28;20430;-80
2022/01/28 14:30:19;;;;;;;7.63;2.30;;;6.70;99.90;;;;;;4968577;28;20477;-79
2022/01/28 14:33:04;;;;;;;16.10;3.43;;;6.70;99.90;;;;;;4984123;28;20433;-79
2022/01/28 14:35:49;;;;;;;15.40;2.13;;;6.70;99.90;;;;;;4973529;28;20484;-80
2022/01/28 14:38:33;;;;;;;4.50;2.67;;;6.60;99.90;;;;;;4972108;28;20822;-79
2022/01/28 14:41:17;;;;;;;3.50;2.20;;;6.60;99.90;;;;;;4970191;28;20416;-80
2022/01/28 14:44:03;;;;;;;5.80;2.87;;;6.50;99.90;;;;;;4984703;28;20424;-80
2022/01/28 14:46:47;;;;;;;3.47;2.07;;;6.50;99.90;;;;;;4972368;28;20484;-80
2022/01/28 14:49:32;;;;;;;8.00;2.90;;;6.50;99.90;;;;;;4973502;28;20454;-80
2022/01/28 14:52:20;;;;;;;9.23;2.60;;;6.40;99.90;;;;;;4987424;28;20429;-79
2022/01/28 14:55:05;;;;;;;8.00;3.57;;;6.40;99.90;;;;;;4975475;28;20439;-80
2022/01/28 14:57:50;;;;;;;6.03;2.87;;;6.40;99.90;;;;;;4973805;28;20433;-80
2022/01/28 15:00:36;;;;;;;3.93;2.20;;;6.40;99.90;;;;;;4972640;28;20517;-81
2022/01/28 15:03:20;;;;;;;12.67;3.40;;;6.40;99.90;;;;;;4957829;28;20439;-80
2022/01/28 15:06:08;;;;;;;4.73;2.80;;;6.40;99.90;;;;;;4974578;28;20434;-81
2022/01/28 15:08:55;;;;;;;6.13;2.60;;;6.40;99.90;;;;;;4965753;28;20397;-80
2022/01/28 15:11:45;;;;;;;4.03;2.47;;;6.40;99.90;;;;;;4972871;28;20501;-80
2022/01/28 15:14:31;;;;;;;11.53;3.20;;;6.30;99.90;;;;;;4975612;28;20470;-80
2022/01/28 15:17:18;;;;;;;10.30;2.20;;;6.30;99.90;;;;;;4947898;28;20855;-80
2022/01/28 15:20:04;;;;;;;9.20;3.17;;;6.30;99.90;;;;;;4969046;28;20444;-81
2022/01/28 15:22:49;;;;;;;12.17;2.57;;;6.30;99.90;;;;;;4970263;28;20457;-80
2022/01/28 15:25:33;;;;;;;6.97;3.10;;;6.30;99.90;;;;;;4982366;28;20429;-81
2022/01/28 15:28:20;;;;;;;6.30;1.70;;;6.20;99.90;;;;;;4931623;29;20438;-82
2022/01/28 15:37:04;;;;;;;19.87;8.13;;;6.20;99.90;;;;;;4932799;29;20791;-80
2022/01/28 15:39:51;;;;;;;8.30;6.23;;;6.20;99.90;;;;;;4917741;29;20463;-80
2022/01/28 15:42:35;;;;;;;4.17;2.70;;;6.10;99.90;;;;;;4944112;29;20428;-80
2022/01/28 15:45:25;;;;;;;10.10;3.83;;;6.10;99.90;;;;;;4891854;29;20458;-81